Time;durP1;ratioP1;P1;durP2;ratioP2;P2;SDS_P1;SDS_P2;PMS_P1;PMS_P2;Temp;Humidity;BMP_temperature;BMP_pressure;BME280_temperature;BME280_humidity;BME280_pressure;Samples;Min_cycle;Max_cycle;Signal;HPM_P1;HPM_P2
2023/10/15 00:01:53;;;;;;;7.32;1.40;;;8.10;99.90;;;;;;5035300;28;20036;-70
2023/10/15 00:04:19;;;;;;;5.82;1.17;;;8.20;99.90;;;;;;5034709;28;20044;-69
2023/10/15 00:06:45;;;;;;;6.15;1.20;;;8.10;99.90;;;;;;5052188;28;20536;-69
2023/10/15 00:09:13;;;;;;;5.22;1.20;;;8.20;99.90;;;;;;5051822;28;20128;-70
2023/10/15 00:11:40;;;;;;;6.00;1.30;;;8.10;99.90;;;;;;5036015;28;20047;-70
2023/10/15 00:14:06;;;;;;;6.55;1.17;;;8.10;99.90;;;;;;5051815;28;20120;-70
2023/10/15 00:16:33;;;;;;;6.82;1.40;;;8.00;99.90;;;;;;5035567;28;20123;-70
2023/10/15 00:19:05;;;;;;;5.00;1.10;;;8.00;99.90;;;;;;5052052;28;20080;-70
2023/10/15 00:21:31;;;;;;;8.27;1.33;;;7.90;99.90;;;;;;5051696;28;20128;-70
2023/10/15 00:23:56;;;;;;;6.38;1.38;;;7.80;99.90;;;;;;5051603;28;20053;-70
2023/10/15 00:26:22;;;;;;;5.55;1.30;;;7.80;99.90;;;;;;5035282;28;20043;-70
2023/10/15 00:28:48;;;;;;;6.15;1.20;;;7.80;99.90;;;;;;5051782;28;20041;-70
2023/10/15 00:31:14;;;;;;;4.82;1.13;;;7.80;99.90;;;;;;5051969;28;20036;-70
2023/10/15 00:33:48;;;;;;;4.30;1.13;;;7.70;99.90;;;;;;5051483;28;20044;-70
2023/10/15 00:36:14;;;;;;;5.50;1.17;;;7.70;99.90;;;;;;5051871;28;20046;-70
2023/10/15 00:38:45;;;;;;;7.57;1.40;;;7.70;99.90;;;;;;5051604;28;20053;-70
2023/10/15 00:41:13;;;;;;;5.60;1.20;;;7.70;99.90;;;;;;5051759;28;20079;-70
2023/10/15 00:43:59;;;;;;;6.32;1.10;;;7.80;99.90;;;;;;5051195;28;20053;-70
2023/10/15 00:46:32;;;;;;;8.75;1.27;;;7.70;99.90;;;;;;5051098;28;20052;-70
2023/10/15 00:49:09;;;;;;;4.60;1.10;;;7.70;99.90;;;;;;5051408;28;20045;-70
2023/10/15 00:51:43;;;;;;;5.05;1.00;;;7.70;99.90;;;;;;5035057;28;20044;-70
2023/10/15 00:54:15;;;;;;;9.38;1.20;;;7.70;99.90;;;;;;5034795;28;20037;-70
2023/10/15 00:56:44;;;;;;;6.63;1.23;;;7.60;99.90;;;;;;5034674;28;20037;-69
2023/10/15 00:59:18;;;;;;;5.25;1.00;;;7.60;99.90;;;;;;5051365;28;20037;-70
2023/10/15 01:02:03;;;;;;;5.43;1.10;;;7.60;99.90;;;;;;5034872;28;20036;-69
2023/10/15 01:04:35;;;;;;;5.13;1.20;;;7.50;99.90;;;;;;5051549;28;20040;-69
2023/10/15 01:07:14;;;;;;;;;;;7.50;99.90;;;;;;5051996;28;20064;-70
2023/10/15 01:09:41;;;;;;;5.40;1.17;;;7.50;99.90;;;;;;5034694;28;20004;-70
2023/10/15 01:12:20;;;;;;;6.20;1.10;;;7.50;99.90;;;;;;5051571;28;20611;-71
2023/10/15 01:14:46;;;;;;;5.57;1.13;;;7.60;99.90;;;;;;5052858;28;20052;-71
2023/10/15 01:17:12;;;;;;;7.65;1.10;;;7.60;99.90;;;;;;5038580;28;20045;-70
2023/10/15 01:19:37;;;;;;;4.78;0.90;;;7.50;99.90;;;;;;5038387;28;20048;-70
2023/10/15 01:22:10;;;;;;;8.07;1.20;;;7.50;99.90;;;;;;5022243;28;20052;-71
2023/10/15 01:24:38;;;;;;;5.03;1.10;;;7.50;99.90;;;;;;5054937;28;20044;-70
2023/10/15 01:27:09;;;;;;;3.75;0.90;;;7.60;99.90;;;;;;5038285;28;20083;-70
2023/10/15 01:29:45;;;;;;;4.40;1.10;;;7.50;99.90;;;;;;5055037;28;20111;-70
2023/10/15 01:32:22;;;;;;;4.47;1.10;;;7.50;99.90;;;;;;5038276;28;20041;-70
2023/10/15 01:34:49;;;;;;;5.32;1.15;;;7.50;99.90;;;;;;5054843;28;20080;-70
2023/10/15 01:39:49;;;;;;;5.70;1.20;;;7.50;99.90;;;;;;5054705;28;20121;-70
2023/10/15 01:44:55;;;;;;;4.82;1.10;;;7.40;99.90;;;;;;5052892;28;20410;-70
2023/10/15 01:47:28;;;;;;;5.57;1.13;;;7.50;99.90;;;;;;5054498;28;20119;-71
2023/10/15 01:49:56;;;;;;;4.30;1.00;;;7.50;99.90;;;;;;5054819;28;20127;-71
2023/10/15 01:52:39;;;;;;;6.03;1.17;;;7.50;99.90;;;;;;5054432;28;20124;-70
2023/10/15 01:55:06;;;;;;;3.83;1.10;;;7.50;99.90;;;;;;5054329;28;20045;-70
2023/10/15 01:57:32;;;;;;;6.35;1.10;;;7.50;99.90;;;;;;5037916;28;20045;-70
2023/10/15 02:03:02;;;;;;;5.70;1.25;;;7.50;99.90;;;;;;5036609;28;20045;-70
2023/10/15 02:05:41;;;;;;;4.95;1.05;;;7.60;99.90;;;;;;5036574;28;20460;-70
2023/10/15 02:08:23;;;;;;;6.53;1.15;;;7.50;99.90;;;;;;5044974;28;20080;-70
2023/10/15 02:10:49;;;;;;;;;;;7.50;99.90;;;;;;5054553;28;20041;-70
2023/10/15 02:13:16;;;;;;;5.53;1.10;;;7.50;99.90;;;;;;5053993;28;20195;-70
2023/10/15 02:15:43;;;;;;;5.50;0.95;;;7.50;99.90;;;;;;5054171;28;20095;-70
2023/10/15 02:18:14;;;;;;;5.15;1.10;;;7.40;99.90;;;;;;5053946;28;20052;-70
2023/10/15 02:23:20;;;;;;;8.07;1.27;;;7.30;99.90;;;;;;5053846;28;20080;-70
2023/10/15 02:25:58;;;;;;;6.72;1.33;;;7.30;99.90;;;;;;5053196;28;20055;-70
2023/10/15 02:28:31;;;;;;;5.10;1.10;;;7.40;99.90;;;;;;5053705;28;20076;-70
2023/10/15 02:33:33;;;;;;;6.55;1.20;;;7.20;99.90;;;;;;5053863;28;20497;-70
2023/10/15 02:35:59;;;;;;;5.22;1.30;;;7.10;99.90;;;;;;5053803;28;20128;-70
2023/10/15 02:38:34;;;;;;;6.35;1.20;;;7.10;99.90;;;;;;5037099;28;20099;-70
2023/10/15 02:43:33;;;;;;;5.72;1.20;;;7.10;99.90;;;;;;5037039;28;20057;-70
2023/10/15 02:46:00;;;;;;;7.07;1.30;;;7.10;99.90;;;;;;5053303;28;20045;-70
2023/10/15 02:48:31;;;;;;;4.82;1.00;;;7.10;99.90;;;;;;5053680;28;20388;-70
2023/10/15 02:51:00;;;;;;;7.63;1.35;;;7.10;99.90;;;;;;5053268;28;20110;-71
2023/10/15 02:53:38;;;;;;;5.63;1.20;;;7.10;99.90;;;;;;5053472;28;20044;-70
2023/10/15 02:56:13;;;;;;;5.43;1.20;;;7.00;99.90;;;;;;5053193;28;20127;-70
2023/10/15 02:58:40;;;;;;;4.32;1.10;;;7.00;99.90;;;;;;5053302;28;20421;-70
2023/10/15 03:01:23;;;;;;;4.90;1.13;;;6.90;99.90;;;;;;5036456;28;20045;-70
2023/10/15 03:03:52;;;;;;;6.97;1.20;;;7.00;99.90;;;;;;5052884;28;20049;-70
2023/10/15 03:06:19;;;;;;;7.30;1.20;;;7.00;99.90;;;;;;5053189;28;20497;-71
2023/10/15 03:08:48;;;;;;;4.20;1.00;;;7.00;99.90;;;;;;5052997;28;20103;-71
2023/10/15 03:11:18;;;;;;;5.95;1.20;;;7.10;99.90;;;;;;5036475;28;20045;-71
2023/10/15 03:13:50;;;;;;;6.13;1.25;;;7.00;99.90;;;;;;5036961;28;20059;-72
2023/10/15 03:16:26;;;;;;;7.07;1.30;;;7.00;99.90;;;;;;5036445;28;20041;-71
2023/10/15 03:18:52;;;;;;;6.57;1.40;;;7.10;99.90;;;;;;5052948;28;20056;-71
2023/10/15 03:21:30;;;;;;;5.90;1.20;;;7.10;99.90;;;;;;5053128;28;20041;-71
2023/10/15 03:23:57;;;;;;;5.47;1.15;;;7.10;99.90;;;;;;5052657;28;20047;-72
2023/10/15 03:26:31;;;;;;;4.43;1.00;;;7.10;99.90;;;;;;5053451;28;20120;-69
2023/10/15 03:29:00;;;;;;;4.43;1.00;;;7.10;99.90;;;;;;5052714;28;20040;-69
2023/10/15 03:31:31;;;;;;;7.00;1.30;;;7.10;99.90;;;;;;5052521;28;20048;-69
2023/10/15 03:36:57;;;;;;;7.18;1.20;;;7.00;99.90;;;;;;5052808;28;20053;-69
2023/10/15 03:41:54;;;;;;;5.53;1.15;;;7.00;99.90;;;;;;5052569;28;20041;-69
2023/10/15 03:44:27;;;;;;;6.00;1.23;;;6.90;99.90;;;;;;5052080;28;20045;-69
2023/10/15 03:46:54;;;;;;;5.50;1.20;;;6.80;99.90;;;;;;5036691;28;20056;-69
2023/10/15 03:49:27;;;;;;;5.80;1.30;;;6.80;99.90;;;;;;5035652;28;20052;-69
2023/10/15 03:51:53;;;;;;;5.65;1.20;;;6.70;99.90;;;;;;5052116;28;20037;-69
2023/10/15 03:54:22;;;;;;;5.40;1.17;;;6.70;99.90;;;;;;5052361;28;20043;-69
2023/10/15 03:56:49;;;;;;;4.60;1.00;;;6.60;99.90;;;;;;5052312;28;20041;-69
2023/10/15 03:59:15;;;;;;;7.72;1.30;;;6.60;99.90;;;;;;5052019;28;20047;-69
2023/10/15 04:01:48;;;;;;;7.70;1.45;;;6.60;99.90;;;;;;5019595;28;20048;-68
2023/10/15 04:04:16;;;;;;;7.25;1.30;;;6.50;99.90;;;;;;5020085;28;20044;-69
2023/10/15 04:06:45;;;;;;;4.68;1.00;;;6.50;99.90;;;;;;5052244;28;20037;-69
2023/10/15 04:09:13;;;;;;;5.15;1.20;;;6.50;99.90;;;;;;5051716;28;20037;-69
2023/10/15 04:11:44;;;;;;;6.25;1.13;;;6.50;99.90;;;;;;5035668;28;20044;-69
2023/10/15 04:14:21;;;;;;;5.55;1.10;;;6.50;99.90;;;;;;5052281;28;20052;-69
2023/10/15 04:16:47;;;;;;;5.15;1.20;;;6.50;99.90;;;;;;5052011;28;20110;-69
2023/10/15 04:19:17;;;;;;;4.65;0.98;;;6.50;99.90;;;;;;5051764;28;20045;-69
2023/10/15 04:21:44;;;;;;;6.25;1.20;;;6.40;99.90;;;;;;5052026;28;20048;-69
2023/10/15 04:24:12;;;;;;;4.18;1.08;;;6.40;99.90;;;;;;5051515;28;20041;-69
2023/10/15 04:26:48;;;;;;;5.35;1.10;;;6.40;99.90;;;;;;5068481;28;20118;-69
2023/10/15 04:29:17;;;;;;;5.97;1.10;;;6.50;99.90;;;;;;5052051;28;20162;-69
2023/10/15 04:32:23;;;;;;;4.93;1.15;;;6.50;99.90;;;;;;5051538;28;20072;-69
2023/10/15 04:34:39;;;;;;;5.57;1.20;;;6.50;99.90;;;;;;5048940;28;20039;-69
2023/10/15 04:37:10;;;;;;;4.00;1.05;;;6.40;99.90;;;;;;5035210;28;20041;-70
2023/10/15 04:39:47;;;;;;;4.75;1.08;;;6.50;99.90;;;;;;5051754;28;20071;-70
2023/10/15 04:42:20;;;;;;;5.95;1.20;;;6.50;99.90;;;;;;5051452;28;20045;-71
2023/10/15 04:44:47;;;;;;;5.40;1.08;;;6.50;99.90;;;;;;5051390;28;20053;-70
2023/10/15 04:47:17;;;;;;;5.30;1.02;;;6.50;99.90;;;;;;5051635;28;20044;-70
2023/10/15 04:49:47;;;;;;;5.25;1.20;;;6.50;99.90;;;;;;5052702;28;20064;-71
2023/10/15 04:52:14;;;;;;;5.25;0.90;;;6.60;99.90;;;;;;5055510;28;20127;-71
2023/10/15 04:54:40;;;;;;;5.28;1.30;;;6.60;99.90;;;;;;5039206;28;20036;-70
2023/10/15 04:57:05;;;;;;;6.03;1.00;;;6.60;99.90;;;;;;5038819;28;20055;-70
2023/10/15 04:59:32;;;;;;;4.22;1.20;;;6.50;99.90;;;;;;5055263;28;20127;-70
2023/10/15 05:01:57;;;;;;;4.68;1.10;;;6.50;99.90;;;;;;5038812;28;20041;-71
2023/10/15 05:04:25;;;;;;;5.03;1.10;;;6.50;99.90;;;;;;5055498;28;20374;-70
2023/10/15 05:06:50;;;;;;;5.18;1.30;;;6.50;99.90;;;;;;5038959;28;20037;-70
2023/10/15 05:09:22;;;;;;;6.47;1.20;;;6.50;99.90;;;;;;5038983;28;20095;-70
2023/10/15 05:11:51;;;;;;;5.22;1.10;;;6.50;99.90;;;;;;5055243;28;20120;-70
2023/10/15 05:14:17;;;;;;;7.10;1.13;;;6.50;99.90;;;;;;5055302;28;20072;-70
2023/10/15 05:16:46;;;;;;;4.68;1.00;;;6.50;99.90;;;;;;5055215;28;20520;-70
2023/10/15 05:19:17;;;;;;;5.28;1.20;;;6.50;99.90;;;;;;5071549;28;20040;-70
2023/10/15 05:21:46;;;;;;;5.85;1.20;;;6.50;99.90;;;;;;5054932;28;20037;-70
2023/10/15 05:24:24;;;;;;;6.82;1.30;;;6.50;99.90;;;;;;5054790;28;20098;-70
2023/10/15 05:26:49;;;;;;;4.18;1.00;;;6.50;99.90;;;;;;5054972;28;20036;-70
2023/10/15 05:29:15;;;;;;;5.38;1.20;;;6.50;99.90;;;;;;5038164;28;20037;-70
2023/10/15 05:31:42;;;;;;;5.55;1.02;;;6.50;99.90;;;;;;5054863;28;20036;-70
2023/10/15 05:34:08;;;;;;;4.80;1.00;;;6.60;99.90;;;;;;5038308;28;20076;-70
2023/10/15 05:36:37;;;;;;;5.95;1.17;;;6.60;99.90;;;;;;5054923;28;20044;-70
2023/10/15 05:39:04;;;;;;;5.63;1.10;;;6.70;99.90;;;;;;5054527;28;20045;-70
2023/10/15 05:41:32;;;;;;;5.13;1.00;;;6.60;99.90;;;;;;5038205;28;20041;-70
2023/10/15 05:43:59;;;;;;;4.35;1.02;;;6.60;99.90;;;;;;5054369;28;20049;-70
2023/10/15 05:46:27;;;;;;;6.07;1.00;;;6.70;99.90;;;;;;5037977;28;20078;-71
2023/10/15 05:48:53;;;;;;;5.50;1.00;;;6.60;99.90;;;;;;5037823;28;20099;-71
2023/10/15 05:51:20;;;;;;;2.65;0.80;;;6.70;99.90;;;;;;5054657;28;20040;-71
2023/10/15 05:53:46;;;;;;;4.07;1.10;;;6.70;99.90;;;;;;5021730;28;20087;-70
2023/10/15 05:56:13;;;;;;;5.10;0.80;;;6.70;99.90;;;;;;5054599;28;20083;-70
2023/10/15 05:58:39;;;;;;;6.68;1.10;;;6.70;99.90;;;;;;5038023;28;20045;-70
2023/10/15 06:01:06;;;;;;;6.10;1.10;;;6.70;99.90;;;;;;5054413;28;20037;-70
2023/10/15 06:03:31;;;;;;;4.53;1.00;;;6.70;99.90;;;;;;5037858;28;20037;-70
2023/10/15 06:05:58;;;;;;;5.13;0.98;;;6.70;99.90;;;;;;5054124;28;20071;-71
2023/10/15 06:08:24;;;;;;;5.65;1.00;;;6.70;99.90;;;;;;5054160;28;20127;-70
2023/10/15 06:10:50;;;;;;;4.55;1.00;;;6.70;99.90;;;;;;5053954;28;20063;-70
2023/10/15 06:13:16;;;;;;;4.28;0.90;;;6.80;99.90;;;;;;5054095;28;20045;-71
2023/10/15 06:15:42;;;;;;;5.47;1.00;;;6.80;99.90;;;;;;5054029;28;20098;-70
2023/10/15 06:18:09;;;;;;;5.00;1.02;;;6.70;99.90;;;;;;5053786;28;20079;-71
2023/10/15 06:20:35;;;;;;;6.15;1.02;;;6.80;99.90;;;;;;5054160;28;20518;-70
2023/10/15 06:23:04;;;;;;;3.67;0.88;;;6.80;99.90;;;;;;5053821;28;20052;-70
2023/10/15 06:25:30;;;;;;;5.40;1.02;;;6.70;99.90;;;;;;5053713;28;20041;-70
2023/10/15 06:27:56;;;;;;;4.75;0.98;;;6.70;99.90;;;;;;5053750;28;20044;-70
2023/10/15 06:30:22;;;;;;;5.35;1.00;;;6.70;99.90;;;;;;5053707;28;20124;-70
2023/10/15 06:32:48;;;;;;;5.22;1.10;;;6.70;99.90;;;;;;5053608;28;20106;-70
2023/10/15 06:35:19;;;;;;;4.88;1.00;;;6.80;99.90;;;;;;5053600;28;20123;-70
2023/10/15 06:37:56;;;;;;;6.25;0.90;;;6.80;99.90;;;;;;5053862;28;20051;-70
2023/10/15 06:40:21;;;;;;;3.80;1.00;;;6.80;99.90;;;;;;5053474;28;20040;-70
2023/10/15 06:42:47;;;;;;;5.18;1.00;;;6.90;99.90;;;;;;5053157;28;20048;-70
2023/10/15 06:45:19;;;;;;;3.30;0.88;;;6.90;99.90;;;;;;5053586;28;20056;-70
2023/10/15 06:47:46;;;;;;;3.25;0.90;;;7.00;99.90;;;;;;5037551;28;20041;-70
2023/10/15 06:50:12;;;;;;;5.95;1.10;;;7.10;99.90;;;;;;5053338;28;20052;-70
2023/10/15 06:52:39;;;;;;;5.10;1.00;;;7.10;99.90;;;;;;5053552;28;20041;-70
2023/10/15 06:55:07;;;;;;;4.55;0.93;;;7.20;99.90;;;;;;5037087;28;20041;-70
2023/10/15 06:57:33;;;;;;;4.90;1.13;;;7.20;99.90;;;;;;5037074;28;20045;-70
2023/10/15 06:59:59;;;;;;;4.07;0.90;;;7.20;99.90;;;;;;5053144;28;20041;-70
2023/10/15 07:02:28;;;;;;;4.30;1.00;;;7.20;99.90;;;;;;5053203;28;20037;-70
2023/10/15 07:04:56;;;;;;;5.30;1.17;;;7.30;99.90;;;;;;5052999;28;20045;-70
2023/10/15 07:07:22;;;;;;;5.38;1.00;;;7.30;99.90;;;;;;5053826;28;20362;-70
2023/10/15 07:09:48;;;;;;;5.03;1.00;;;7.30;99.90;;;;;;5036360;28;20095;-70
2023/10/15 07:12:14;;;;;;;6.30;1.10;;;7.30;99.90;;;;;;5036013;28;20044;-70
2023/10/15 07:14:40;;;;;;;3.80;0.80;;;7.30;99.90;;;;;;5053198;28;20106;-70
2023/10/15 07:17:05;;;;;;;4.78;1.00;;;7.30;99.90;;;;;;5036227;28;20071;-70
2023/10/15 07:19:31;;;;;;;4.57;1.00;;;7.30;99.90;;;;;;5052820;28;20048;-71
2023/10/15 07:21:57;;;;;;;4.20;1.00;;;7.30;99.90;;;;;;5035928;28;20045;-71
2023/10/15 07:24:23;;;;;;;4.50;0.98;;;7.30;99.90;;;;;;5052771;28;20083;-70
2023/10/15 07:26:48;;;;;;;4.18;0.90;;;7.30;99.90;;;;;;5052923;28;20124;-70
2023/10/15 07:29:14;;;;;;;3.70;0.90;;;7.30;99.90;;;;;;5052451;28;20130;-70
2023/10/15 07:31:40;;;;;;;3.22;0.75;;;7.30;99.90;;;;;;5052674;28;20105;-70
2023/10/15 07:34:05;;;;;;;5.43;0.90;;;7.30;99.90;;;;;;5036160;28;20044;-70
2023/10/15 07:36:32;;;;;;;4.28;0.82;;;7.30;99.90;;;;;;5052550;28;20123;-70
2023/10/15 07:38:58;;;;;;;4.30;0.98;;;7.30;99.90;;;;;;5053652;28;20382;-70
2023/10/15 07:41:23;;;;;;;5.15;0.80;;;7.40;99.90;;;;;;5052516;28;20040;-70
2023/10/15 07:43:49;;;;;;;4.05;0.90;;;7.40;99.90;;;;;;5052148;28;20126;-70
2023/10/15 07:46:15;;;;;;;3.85;0.88;;;7.50;99.90;;;;;;5035776;28;20127;-70
2023/10/15 07:48:40;;;;;;;4.50;0.93;;;7.60;99.90;;;;;;5035737;28;20033;-70
2023/10/15 07:51:06;;;;;;;4.18;0.90;;;7.60;99.90;;;;;;5035549;28;20037;-70
2023/10/15 07:53:33;;;;;;;4.55;0.98;;;7.70;99.90;;;;;;5035627;28;20041;-70
2023/10/15 07:55:58;;;;;;;3.42;0.90;;;7.70;99.90;;;;;;5035330;28;20127;-71
2023/10/15 07:58:24;;;;;;;3.50;0.82;;;7.70;99.90;;;;;;5052180;28;20541;-71
2023/10/15 08:00:52;;;;;;;2.88;0.80;;;7.60;99.90;;;;;;5052299;28;20508;-72
2023/10/15 08:03:18;;;;;;;3.70;0.80;;;7.60;99.90;;;;;;5035637;28;20588;-73
2023/10/15 08:05:46;;;;;;;3.58;0.70;;;7.50;99.90;;;;;;5052139;28;20128;-70
2023/10/15 08:08:12;;;;;;;8.10;5.10;;;7.30;99.90;;;;;;5052378;28;20132;-70
2023/10/15 08:10:38;;;;;;;8.73;4.25;;;7.30;99.90;;;;;;5052142;28;20033;-69
2023/10/15 08:13:06;;;;;;;3.90;1.10;;;7.20;99.90;;;;;;5051966;28;20048;-69
2023/10/15 08:15:33;;;;;;;13.57;8.95;;;7.20;99.90;;;;;;5051865;28;20041;-69
2023/10/15 08:18:01;;;;;;;5.63;1.30;;;7.20;99.90;;;;;;5051852;28;20101;-69
2023/10/15 08:20:28;;;;;;;3.65;0.80;;;7.20;99.90;;;;;;5051817;28;20079;-69
2023/10/15 08:22:54;;;;;;;4.07;0.75;;;7.20;99.90;;;;;;5051749;28;20083;-69
2023/10/15 08:25:23;;;;;;;3.15;0.88;;;7.30;99.90;;;;;;5034734;28;20638;-69
2023/10/15 08:27:49;;;;;;;3.40;0.70;;;7.30;99.90;;;;;;5051732;28;20036;-69
2023/10/15 08:30:17;;;;;;;2.78;0.70;;;7.30;99.90;;;;;;5051718;28;20148;-69
2023/10/15 08:32:44;;;;;;;3.90;0.70;;;7.40;99.90;;;;;;5051591;28;20045;-70
2023/10/15 08:35:16;;;;;;;4.05;0.90;;;7.50;99.90;;;;;;5051741;28;20075;-69
2023/10/15 08:37:46;;;;;;;2.53;0.70;;;7.60;99.90;;;;;;5051702;28;20366;-70
2023/10/15 08:40:17;;;;;;;2.95;0.73;;;7.60;99.90;;;;;;5035020;28;20147;-70
2023/10/15 08:42:56;;;;;;;3.67;0.80;;;7.80;99.90;;;;;;5051401;28;20052;-70
2023/10/15 08:45:23;;;;;;;5.00;1.05;;;7.80;99.90;;;;;;5051808;28;20055;-69
2023/10/15 08:47:50;;;;;;;3.80;0.80;;;7.90;99.90;;;;;;5034985;28;20040;-70
2023/10/15 08:50:22;;;;;;;4.30;1.02;;;8.00;99.90;;;;;;5051524;28;20127;-70
2023/10/15 08:52:52;;;;;;;3.45;0.90;;;8.20;99.90;;;;;;5051702;28;20106;-70
2023/10/15 08:55:22;;;;;;;5.18;1.10;;;8.30;99.90;;;;;;5018785;28;20063;-70
2023/10/15 08:57:54;;;;;;;2.92;0.80;;;8.50;99.90;;;;;;5035585;28;20044;-70
2023/10/15 09:00:25;;;;;;;3.80;0.90;;;8.60;99.90;;;;;;5051441;28;20048;-70
2023/10/15 09:03:00;;;;;;;4.13;0.88;;;8.80;99.90;;;;;;5051509;28;20049;-70
2023/10/15 09:05:30;;;;;;;4.40;1.00;;;9.10;99.90;;;;;;5035167;28;20041;-70
2023/10/15 09:07:57;;;;;;;5.00;0.98;;;9.30;99.90;;;;;;5035111;28;20037;-70
2023/10/15 09:10:23;;;;;;;4.18;1.05;;;9.40;99.90;;;;;;5051298;28;20044;-70
2023/10/15 09:12:52;;;;;;;5.13;1.10;;;9.40;99.90;;;;;;5051358;28;20076;-70
2023/10/15 09:15:18;;;;;;;5.47;1.10;;;9.40;99.90;;;;;;5034651;28;20080;-70
2023/10/15 09:17:55;;;;;;;3.90;1.02;;;9.10;99.90;;;;;;5051409;28;20055;-70
2023/10/15 09:20:32;;;;;;;6.05;1.23;;;9.20;99.90;;;;;;5051461;28;20045;-70
2023/10/15 09:23:00;;;;;;;4.10;1.05;;;9.30;99.90;;;;;;5051482;28;20124;-70
2023/10/15 09:25:27;;;;;;;5.95;1.15;;;9.50;99.90;;;;;;5051119;28;20060;-70
2023/10/15 09:27:54;;;;;;;5.45;0.98;;;9.60;99.90;;;;;;5051008;28;20103;-71
2023/10/15 09:30:24;;;;;;;5.05;1.10;;;9.60;99.90;;;;;;5034572;28;20041;-70
2023/10/15 09:32:50;;;;;;;5.13;0.90;;;9.60;99.90;;;;;;5051286;28;20211;-70
2023/10/15 09:35:16;;;;;;;4.07;1.00;;;9.60;99.90;;;;;;5051628;28;20053;-71
2023/10/15 09:37:44;;;;;;;5.60;0.90;;;9.70;99.90;;;;;;5054704;28;20044;-71
2023/10/15 09:40:18;;;;;;;5.22;1.08;;;9.70;99.90;;;;;;5054687;28;20123;-70
2023/10/15 09:42:46;;;;;;;4.35;0.80;;;9.80;99.90;;;;;;5054753;28;20501;-70
2023/10/15 09:45:18;;;;;;;4.30;1.00;;;9.90;99.90;;;;;;5054387;28;20053;-70
2023/10/15 09:47:48;;;;;;;3.85;0.90;;;9.90;99.90;;;;;;5054999;28;20055;-70
2023/10/15 09:50:19;;;;;;;5.40;1.00;;;9.90;99.90;;;;;;5038480;28;20481;-70
2023/10/15 09:52:55;;;;;;;5.05;1.02;;;10.00;99.90;;;;;;5054480;28;20137;-70
2023/10/15 09:55:28;;;;;;;4.55;1.10;;;10.10;99.90;;;;;;5054267;28;20124;-70
2023/10/15 09:57:56;;;;;;;5.80;1.02;;;10.30;99.90;;;;;;5021839;28;20040;-71
2023/10/15 10:00:59;;;;;;;5.60;1.00;;;10.40;99.90;;;;;;5054243;28;20051;-70
2023/10/15 10:03:39;;;;;;;5.53;1.23;;;10.40;99.90;;;;;;5037716;28;20078;-70
2023/10/15 10:06:11;;;;;;;5.90;1.35;;;10.50;99.90;;;;;;5054210;28;20041;-70
2023/10/15 10:09:02;;;;;;;5.40;1.00;;;10.70;99.90;;;;;;5054309;28;20051;-68
2023/10/15 10:11:30;;;;;;;5.50;1.13;;;10.80;99.90;;;;;;5037466;28;20114;-68
2023/10/15 10:14:17;;;;;;;5.30;1.00;;;10.70;99.90;;;;;;5053987;28;20127;-69
2023/10/15 10:16:44;;;;;;;5.70;1.23;;;10.60;99.90;;;;;;5054248;28;20040;-69
2023/10/15 10:19:10;;;;;;;6.85;1.55;;;10.60;99.90;;;;;;5037411;28;20048;-69
2023/10/15 10:21:36;;;;;;;5.85;1.10;;;10.50;99.90;;;;;;5037495;28;20049;-69
2023/10/15 10:24:08;;;;;;;6.72;1.50;;;10.40;99.90;;;;;;5053745;28;20045;-69
2023/10/15 10:26:38;;;;;;;5.97;1.30;;;10.40;99.90;;;;;;5053965;28;20040;-69
2023/10/15 10:29:03;;;;;;;5.68;1.25;;;10.30;99.90;;;;;;5054135;28;20485;-69
2023/10/15 10:31:34;;;;;;;5.93;1.30;;;10.20;99.90;;;;;;5053919;28;20032;-70
2023/10/15 10:34:03;;;;;;;9.57;1.38;;;10.30;99.90;;;;;;5037300;28;20045;-72
2023/10/15 10:36:30;;;;;;;7.18;1.50;;;10.50;99.90;;;;;;5053608;28;20123;-71
2023/10/15 10:39:10;;;;;;;5.95;1.10;;;10.60;99.90;;;;;;5053775;28;20574;-70
2023/10/15 10:41:38;;;;;;;5.63;1.30;;;10.90;99.90;;;;;;5053510;28;20045;-70
2023/10/15 10:44:28;;;;;;;5.63;1.33;;;11.00;99.90;;;;;;5036609;28;20052;-70
2023/10/15 10:46:57;;;;;;;9.13;1.40;;;11.10;99.90;;;;;;5052361;28;20114;-70
2023/10/15 10:49:34;;;;;;;6.45;1.30;;;11.20;99.90;;;;;;5053326;28;20037;-70
2023/10/15 10:52:16;;;;;;;5.70;1.30;;;11.20;99.90;;;;;;5053574;28;20045;-70
2023/10/15 10:54:45;;;;;;;7.00;1.40;;;11.30;99.90;;;;;;5053352;28;20033;-70
2023/10/15 10:57:11;;;;;;;5.80;1.30;;;11.50;99.90;;;;;;5036730;28;20041;-70
2023/10/15 10:59:39;;;;;;;7.22;1.27;;;11.50;99.90;;;;;;5053238;28;20033;-70
2023/10/15 11:02:06;;;;;;;6.53;1.27;;;11.40;99.90;;;;;;5052965;28;20041;-71
2023/10/15 11:04:32;;;;;;;6.63;1.10;;;11.30;99.90;;;;;;5053433;28;20052;-69
2023/10/15 11:06:58;;;;;;;6.13;1.05;;;11.10;99.90;;;;;;5053304;28;20041;-72
2023/10/15 11:09:25;;;;;;;5.03;1.13;;;11.00;99.90;;;;;;5052874;28;20047;-69
2023/10/15 11:11:55;;;;;;;7.03;1.10;;;10.90;99.90;;;;;;5052939;28;20041;-71
2023/10/15 11:14:26;;;;;;;6.65;1.17;;;10.90;99.90;;;;;;5052849;28;20048;-70
2023/10/15 11:16:54;;;;;;;7.43;1.25;;;10.90;99.90;;;;;;5052873;28;20045;-70
2023/10/15 11:19:21;;;;;;;4.97;1.00;;;10.90;99.90;;;;;;5053036;28;20041;-69
2023/10/15 11:21:49;;;;;;;6.45;1.23;;;11.00;99.90;;;;;;5036662;28;20128;-70
2023/10/15 11:24:15;;;;;;;6.68;1.38;;;11.00;99.90;;;;;;5052827;28;20045;-70
2023/10/15 11:26:43;;;;;;;6.28;1.20;;;11.10;99.90;;;;;;5052729;28;20127;-70
2023/10/15 11:29:12;;;;;;;7.18;1.35;;;11.10;99.90;;;;;;5053011;28;20040;-70
2023/10/15 11:31:42;;;;;;;7.78;1.38;;;11.20;99.90;;;;;;5052546;28;20044;-69
2023/10/15 11:34:12;;;;;;;7.47;1.20;;;11.20;99.90;;;;;;5052681;28;20049;-69
2023/10/15 11:36:39;;;;;;;4.55;1.13;;;11.30;99.90;;;;;;5052833;28;20128;-70
2023/10/15 11:39:17;;;;;;;6.40;1.20;;;11.30;99.90;;;;;;5053058;28;20175;-70
2023/10/15 11:41:49;;;;;;;6.70;1.00;;;11.40;99.90;;;;;;5052466;28;20051;-70
2023/10/15 11:44:16;;;;;;;5.65;1.15;;;11.50;99.90;;;;;;5052155;28;20132;-70
2023/10/15 11:46:41;;;;;;;5.95;1.30;;;11.60;99.90;;;;;;5036245;28;20351;-69
2023/10/15 11:49:09;;;;;;;7.75;1.30;;;11.50;99.90;;;;;;5052214;28;20048;-69
2023/10/15 11:51:35;;;;;;;5.70;1.13;;;11.50;99.90;;;;;;5052460;28;20489;-69
2023/10/15 11:54:04;;;;;;;5.20;1.10;;;11.60;99.90;;;;;;5069258;28;20404;-70
2023/10/15 11:56:31;;;;;;;8.50;1.42;;;11.70;99.90;;;;;;5052497;28;20127;-69
2023/10/15 11:59:00;;;;;;;5.32;1.20;;;11.70;99.90;;;;;;5051560;28;20543;-69
2023/10/15 12:01:26;;;;;;;6.47;1.35;;;11.90;99.90;;;;;;5052452;28;20036;-68
2023/10/15 12:03:56;;;;;;;6.88;1.30;;;11.90;99.90;;;;;;5052212;28;20041;-68
2023/10/15 12:06:22;;;;;;;7.75;1.40;;;12.00;99.90;;;;;;5036293;28;20044;-68
2023/10/15 12:08:48;;;;;;;9.60;1.40;;;12.10;99.90;;;;;;5035340;28;20036;-67
2023/10/15 12:11:18;;;;;;;7.68;1.35;;;12.20;99.90;;;;;;5052408;28;20041;-67
2023/10/15 12:13:44;;;;;;;7.05;1.30;;;12.30;99.90;;;;;;5052167;28;20047;-68
2023/10/15 12:16:13;;;;;;;8.30;1.30;;;12.30;99.90;;;;;;5052198;28;20044;-68
2023/10/15 12:18:39;;;;;;;5.53;1.20;;;12.20;99.90;;;;;;5051893;28;20086;-68
2023/10/15 12:21:06;;;;;;;6.88;1.50;;;12.20;99.90;;;;;;5051867;28;20447;-67
2023/10/15 12:23:32;;;;;;;8.18;1.40;;;12.20;99.90;;;;;;5051786;28;20068;-68
2023/10/15 12:25:57;;;;;;;7.40;1.25;;;12.20;99.90;;;;;;5051997;28;20040;-68
2023/10/15 12:28:23;;;;;;;7.18;1.52;;;12.20;99.90;;;;;;5035200;28;20047;-67
2023/10/15 12:30:49;;;;;;;5.43;1.30;;;12.20;99.90;;;;;;5035125;28;20036;-67
2023/10/15 12:33:17;;;;;;;5.60;1.25;;;12.20;99.90;;;;;;5035086;28;20147;-68
2023/10/15 12:35:44;;;;;;;6.60;1.38;;;12.20;99.90;;;;;;5051925;28;20393;-67
2023/10/15 12:38:16;;;;;;;6.80;1.23;;;12.30;99.90;;;;;;5035004;28;20041;-67
2023/10/15 12:40:45;;;;;;;6.28;1.17;;;12.30;99.90;;;;;;5051588;28;20045;-68
2023/10/15 12:43:15;;;;;;;7.97;1.50;;;12.10;99.90;;;;;;5051645;28;20049;-67
2023/10/15 12:45:44;;;;;;;7.22;1.38;;;12.00;99.90;;;;;;5051455;28;20059;-67
2023/10/15 12:48:10;;;;;;;7.40;1.23;;;11.80;99.90;;;;;;5035332;28;20037;-69
2023/10/15 12:50:37;;;;;;;6.45;1.25;;;11.50;99.90;;;;;;5051658;28;20072;-68
2023/10/15 12:53:03;;;;;;;5.45;1.27;;;11.40;99.90;;;;;;5051576;28;20063;-68
2023/10/15 12:55:28;;;;;;;7.03;1.40;;;11.20;99.90;;;;;;5051479;28;20127;-68
2023/10/15 12:57:54;;;;;;;6.35;1.20;;;11.10;99.90;;;;;;5051341;28;20099;-69
2023/10/15 13:00:27;;;;;;;6.72;1.20;;;11.10;99.90;;;;;;5034823;28;20072;-68
2023/10/15 13:02:53;;;;;;;7.28;1.20;;;11.10;99.90;;;;;;5051405;28;20044;-68
2023/10/15 13:05:21;;;;;;;5.43;1.20;;;11.10;99.90;;;;;;5051713;28;20052;-68
2023/10/15 13:07:49;;;;;;;6.03;1.25;;;11.20;99.90;;;;;;5051610;28;20079;-68
2023/10/15 13:10:17;;;;;;;6.18;1.30;;;11.30;99.90;;;;;;5052143;28;20041;-68
2023/10/15 13:12:48;;;;;;;7.35;1.25;;;11.40;99.90;;;;;;5055306;28;20119;-68
2023/10/15 13:15:16;;;;;;;7.50;1.30;;;11.50;99.90;;;;;;5038602;28;20040;-68
2023/10/15 13:17:41;;;;;;;7.15;1.40;;;11.50;99.90;;;;;;5055428;28;20048;-70
2023/10/15 13:20:11;;;;;;;6.65;1.30;;;11.50;99.90;;;;;;5055136;28;20041;-69
2023/10/15 13:22:40;;;;;;;8.57;1.50;;;11.40;99.90;;;;;;5055177;28;20488;-68
2023/10/15 13:25:07;;;;;;;8.50;1.40;;;11.20;99.90;;;;;;5054989;28;20124;-68
2023/10/15 13:27:35;;;;;;;6.68;1.30;;;11.10;99.90;;;;;;5055276;28;20128;-68